Accueil
METAR-TAF:

METAR-TAF

Aéroports :

Monte Malanotte

Prato Nevoso, Italie

latitude: 44-15N, longitude: 007-48E, altitude: 1741 m

Observation

Le bulletin a été fait il y a 5 heures et 7 minutes, à 17:55 UTC
Vent 6 kt de est/nord-est
Température 26°C
Humidité 70%
Pression 1015 hPa
Visibilité 10 km ou plus
Quelques nuages à une hauteur de 2500 ft

METAR: LIMY 171755Z 07006KT 9999 FEW025 26/20 Q1015 RMK SCT VAL FOSCHIA VIS MIN 9999

Heure: 01:02 (23:02 UTC)


TAF: absent

Observations et prévisions météorologiques de plus de 4000 aéroports (messages METAR et TAF).

Les stations disponibles sont représentées par des disques jaunes et rouges sur la carte.

Passer la souris dessus pour voir le nom de la station.

Cliquer dessus pour voir les observations et prévisions météorologiques.

Pour changer de carte: cliquez sur les boutons verts avec une croix noire pour zoomer, sur le bouton vert avec un tiret pour effectuer un zoom arrière, ou sur les flèches vertes pour les cartes adjacentes.


METAR-TAF: